createdAt,value
2022-11-05T00:01:22.869Z,97469.13
2022-11-05T00:04:10.548Z,97487.00
2022-11-05T00:06:59.414Z,97487.31
2022-11-05T00:09:32.729Z,97484.59
2022-11-05T00:12:32.126Z,97487.00
2022-11-05T00:15:19.910Z,97474.81
2022-11-05T00:17:49.171Z,97482.31
2022-11-05T00:20:18.590Z,97482.31
2022-11-05T00:23:19.830Z,97491.31
2022-11-05T00:25:58.951Z,97485.03
2022-11-05T00:28:30.147Z,97488.44
2022-11-05T00:31:06.636Z,97489.00
2022-11-05T00:33:37.509Z,97491.38
2022-11-05T00:36:09.932Z,97483.53
2022-11-05T00:38:39.376Z,97481.94
2022-11-05T00:41:08.668Z,97485.84
2022-11-05T00:43:56.273Z,97483.66
2022-11-05T00:46:25.561Z,97482.66
2022-11-05T00:49:13.125Z,97488.56
2022-11-05T00:51:42.543Z,97482.00
2022-11-05T00:54:11.801Z,97490.75
2022-11-05T00:56:41.214Z,97483.47
2022-11-05T00:59:10.487Z,97471.41
2022-11-05T01:01:39.825Z,97477.31
2022-11-05T01:04:09.226Z,97466.03
2022-11-05T01:06:38.635Z,97472.41
2022-11-05T01:09:07.953Z,97475.25
2022-11-05T01:11:37.856Z,97471.94
2022-11-05T01:14:12.851Z,97473.53
2022-11-05T01:16:42.928Z,97475.59
2022-11-05T01:19:13.868Z,97476.16
2022-11-05T01:21:43.230Z,97464.66
2022-11-05T01:24:12.633Z,97456.03
2022-11-05T01:26:42.010Z,97463.16
2022-11-05T01:29:11.673Z,97465.94
2022-11-05T01:31:41.042Z,97471.16
2022-11-05T01:34:10.498Z,97466.28
2022-11-05T01:36:39.771Z,97463.66
2022-11-05T01:39:09.099Z,97460.13
2022-11-05T01:41:38.419Z,97468.78
2022-11-05T01:45:12.884Z,97479.97
2022-11-05T01:47:48.374Z,97472.78
2022-11-05T01:50:29.359Z,97469.63
2022-11-05T01:53:44.780Z,97476.09
2022-11-05T01:56:27.967Z,97475.44
2022-11-05T01:59:07.470Z,97484.91
2022-11-05T02:01:37.014Z,97482.28
2022-11-05T02:04:12.761Z,97491.72
2022-11-05T02:06:46.266Z,97486.25
2022-11-05T02:09:45.916Z,97488.53
2022-11-05T02:12:15.919Z,97484.91
2022-11-05T02:14:45.242Z,97487.06
2022-11-05T02:17:45.377Z,97484.31
2022-11-05T02:21:14.343Z,97482.50
2022-11-05T02:24:15.893Z,97492.59
2022-11-05T02:27:40.324Z,97486.56
2022-11-05T02:30:56.621Z,97488.41
2022-11-05T02:34:19.471Z,97489.41
2022-11-05T02:37:15.354Z,97493.06
2022-11-05T02:40:21.793Z,97488.97
2022-11-05T02:43:28.731Z,97478.84
2022-11-05T02:46:14.480Z,97482.00
2022-11-05T02:49:15.940Z,97478.84
2022-11-05T02:52:01.625Z,97481.47
2022-11-05T02:55:07.583Z,97484.41
2022-11-05T02:57:37.591Z,97484.88
2022-11-05T03:00:47.321Z,97492.25
2022-11-05T03:03:56.464Z,97480.91
2022-11-05T03:06:52.216Z,97491.81
2022-11-05T03:09:48.783Z,97494.44
2022-11-05T03:12:45.743Z,97501.75
2022-11-05T03:15:40.597Z,97506.97
2022-11-05T03:18:42.971Z,97505.59
2022-11-05T03:21:23.396Z,97491.59
2022-11-05T03:24:03.643Z,97508.78
2022-11-05T03:26:43.658Z,97510.63
2022-11-05T03:29:25.797Z,97516.31
2022-11-05T03:32:01.949Z,97503.66
2022-11-05T03:34:44.670Z,97506.75
2022-11-05T03:37:18.222Z,97506.63
2022-11-05T03:39:53.538Z,97506.72
2022-11-05T03:42:30.037Z,97510.94
2022-11-05T03:45:14.350Z,97489.56
2022-11-05T03:47:47.917Z,97500.25
2022-11-05T03:50:29.336Z,97503.31
2022-11-05T03:53:26.302Z,97497.53
2022-11-05T03:56:08.212Z,97499.00
2022-11-05T03:58:42.987Z,97503.13
2022-11-05T04:01:12.709Z,97508.34
2022-11-05T04:03:42.112Z,97509.16
2022-11-05T04:06:30.281Z,97501.97
2022-11-05T04:09:17.929Z,97520.38
2022-11-05T04:12:05.469Z,97522.47
2022-11-05T04:14:34.793Z,97522.41
2022-11-05T04:17:06.674Z,97523.66
2022-11-05T04:19:56.422Z,97526.03
2022-11-05T04:22:47.521Z,97525.59
2022-11-05T04:25:19.010Z,97524.13
2022-11-05T04:27:49.293Z,97525.59
2022-11-05T04:30:20.585Z,97533.44
2022-11-05T04:33:14.192Z,97534.69
2022-11-05T04:35:49.212Z,97534.00
2022-11-05T04:38:20.234Z,97539.25
2022-11-05T04:40:49.564Z,97517.19
2022-11-05T04:43:19.976Z,97536.50
2022-11-05T04:45:49.436Z,97535.47
2022-11-05T04:48:18.715Z,97528.66
2022-11-05T04:50:48.306Z,97533.19
2022-11-05T04:53:17.536Z,97522.97
2022-11-05T04:55:46.853Z,97533.41
2022-11-05T04:58:16.219Z,97536.00
2022-11-05T05:00:45.656Z,97532.47
2022-11-05T05:03:15.137Z,97544.63
2022-11-05T05:05:44.430Z,97528.50
2022-11-05T05:08:13.698Z,97535.78
2022-11-05T05:10:43.048Z,97539.84
2022-11-05T05:13:12.552Z,97540.75
2022-11-05T05:15:42.124Z,97546.56
2022-11-05T05:18:11.396Z,97537.13
2022-11-05T05:20:59.341Z,97544.16
2022-11-05T05:23:28.692Z,97541.22
2022-11-05T05:26:00.977Z,97533.13
2022-11-05T05:28:30.269Z,97541.38
2022-11-05T05:31:03.055Z,97549.22
2022-11-05T05:33:32.527Z,97547.50
2022-11-05T05:36:05.845Z,97540.00
2022-11-05T05:38:37.879Z,97540.69
2022-11-05T05:41:07.145Z,97548.66
2022-11-05T05:43:36.568Z,97551.84
2022-11-05T05:46:09.954Z,97546.63
2022-11-05T05:48:39.553Z,97555.47
2022-11-05T05:51:11.788Z,97555.94
2022-11-05T05:53:41.135Z,97563.47
2022-11-05T05:56:11.080Z,97554.25
2022-11-05T05:58:40.963Z,97568.69
2022-11-05T06:01:18.642Z,97568.53
2022-11-05T06:03:49.541Z,97571.03
2022-11-05T06:06:22.841Z,97580.47
2022-11-05T06:08:52.123Z,97572.75
2022-11-05T06:11:21.537Z,97571.75
2022-11-05T06:13:50.938Z,97567.53
2022-11-05T06:16:20.388Z,97560.13
2022-11-05T06:18:49.985Z,97568.69
2022-11-05T06:21:19.305Z,97576.66
2022-11-05T06:23:49.317Z,97578.09
2022-11-05T06:26:19.643Z,97595.69
2022-11-05T06:28:48.932Z,97578.50
2022-11-05T06:31:18.156Z,97586.84
2022-11-05T06:33:47.441Z,97593.22
2022-11-05T06:36:20.137Z,97578.56
2022-11-05T06:38:49.569Z,97599.59
2022-11-05T06:41:18.879Z,97603.81
2022-11-05T06:43:59.399Z,97594.47
2022-11-05T06:46:36.225Z,97599.25
2022-11-05T06:49:05.596Z,97591.63
2022-11-05T06:51:34.840Z,97597.56
2022-11-05T06:54:04.369Z,97597.19
2022-11-05T06:56:35.399Z,97614.47
2022-11-05T06:59:04.832Z,97609.78
2022-11-05T07:01:52.218Z,97625.72
2022-11-05T07:04:21.607Z,97627.91
2022-11-05T07:06:50.882Z,97633.44
2022-11-05T07:09:20.314Z,97631.63
2022-11-05T07:11:49.698Z,97636.28
2022-11-05T07:14:18.991Z,97637.97
2022-11-05T07:16:48.366Z,97640.09
2022-11-05T07:19:17.761Z,97639.28
2022-11-05T07:21:48.795Z,97640.34
2022-11-05T07:24:18.230Z,97638.69
2022-11-05T07:26:47.601Z,97645.94
2022-11-05T07:29:16.842Z,97636.78
2022-11-05T07:31:47.083Z,97640.13
2022-11-05T07:34:16.419Z,97642.53
2022-11-05T07:36:45.674Z,97647.34
2022-11-05T07:39:15.227Z,97644.63
2022-11-05T07:41:44.603Z,97647.53
2022-11-05T07:44:14.600Z,97653.91
2022-11-05T07:46:44.252Z,97651.88
2022-11-05T07:49:13.575Z,97645.78
2022-11-05T07:51:42.860Z,97651.72
2022-11-05T07:54:12.654Z,97641.16
2022-11-05T07:56:41.974Z,97645.50
2022-11-05T07:59:11.689Z,97652.31
2022-11-05T08:01:41.130Z,97642.88
2022-11-05T08:04:10.558Z,97650.72
2022-11-05T08:06:39.956Z,97637.88
2022-11-05T08:09:09.954Z,97647.25
2022-11-05T08:11:40.136Z,97644.16
2022-11-05T08:14:09.546Z,97644.06
2022-11-05T08:16:39.148Z,97631.56
2022-11-05T08:19:08.707Z,97638.50
2022-11-05T08:21:38.161Z,97641.38
2022-11-05T08:24:07.874Z,97656.13
2022-11-05T08:26:37.212Z,97660.81
2022-11-05T08:29:06.510Z,97661.50
2022-11-05T08:31:37.301Z,97655.72
2022-11-05T08:34:06.605Z,97655.16
2022-11-05T08:36:36.387Z,97644.91
2022-11-05T08:39:05.698Z,97648.31
2022-11-05T08:41:35.296Z,97650.59
2022-11-05T08:44:04.898Z,97649.66
2022-11-05T08:46:41.381Z,97647.75
2022-11-05T08:49:11.187Z,97642.16
2022-11-05T08:51:40.583Z,97662.00
2022-11-05T08:54:10.169Z,97659.72
2022-11-05T08:56:40.175Z,97659.84
2022-11-05T08:59:09.647Z,97658.69
2022-11-05T09:01:39.256Z,97659.69
2022-11-05T09:04:09.141Z,97657.44
2022-11-05T09:06:38.492Z,97668.16
2022-11-05T09:09:07.821Z,97672.13
2022-11-05T09:12:09.793Z,97657.56
2022-11-05T09:14:27.341Z,97662.09
2022-11-05T09:16:56.618Z,97664.25
2022-11-05T09:20:42.909Z,97673.16
2022-11-05T09:23:15.087Z,97670.97
2022-11-05T09:25:45.514Z,97682.59
2022-11-05T09:28:21.610Z,97674.75
2022-11-05T09:30:52.948Z,97683.84
2022-11-05T09:33:25.674Z,97681.91
2022-11-05T09:35:55.198Z,97688.06
2022-11-05T09:38:24.601Z,97687.50
2022-11-05T09:41:12.849Z,97669.63
2022-11-05T09:43:56.514Z,97681.91
2022-11-05T09:46:34.190Z,97693.19
2022-11-05T09:49:11.825Z,97691.03
2022-11-05T09:51:41.759Z,97700.81
2022-11-05T09:54:14.913Z,97690.19
2022-11-05T09:56:45.105Z,97697.63
2022-11-05T09:59:26.332Z,97707.31
2022-11-05T10:02:11.575Z,97708.97
2022-11-05T10:04:46.559Z,97700.88
2022-11-05T10:07:22.986Z,97695.41
2022-11-05T10:09:59.207Z,97695.38
2022-11-05T10:12:40.211Z,97702.13
2022-11-05T10:15:28.248Z,97705.91
2022-11-05T10:18:10.411Z,97697.47
2022-11-05T10:20:42.723Z,97705.44
2022-11-05T10:23:20.776Z,97704.84
2022-11-05T10:26:03.191Z,97719.78
2022-11-05T10:28:35.618Z,97711.50
2022-11-05T10:31:14.532Z,97715.38
2022-11-05T10:34:01.151Z,97702.03
2022-11-05T10:36:55.648Z,97700.34
2022-11-05T10:39:27.928Z,97733.34
2022-11-05T10:42:28.168Z,97730.50
2022-11-05T10:45:12.844Z,97745.09
2022-11-05T10:48:09.971Z,97749.69
2022-11-05T10:50:40.052Z,97745.09
2022-11-05T10:53:22.373Z,97748.41
2022-11-05T10:55:54.228Z,97742.38
2022-11-05T10:58:30.169Z,97739.06
2022-11-05T11:01:01.751Z,97761.72
2022-11-05T11:03:52.401Z,97754.34
2022-11-05T11:06:30.732Z,97753.44
2022-11-05T11:09:04.114Z,97754.94
2022-11-05T11:11:42.834Z,97752.91
2022-11-05T11:14:12.061Z,97750.38
2022-11-05T11:16:45.135Z,97758.34
2022-11-05T11:19:36.485Z,97751.19
2022-11-05T11:22:05.793Z,97750.28
2022-11-05T11:24:48.331Z,97744.59
2022-11-05T11:27:28.031Z,97747.97
2022-11-05T11:30:02.506Z,97747.63
2022-11-05T11:32:40.117Z,97751.03
2022-11-05T11:35:22.511Z,97731.66
2022-11-05T11:37:58.209Z,97746.34
2022-11-05T11:40:38.431Z,97746.31
2022-11-05T11:43:31.344Z,97751.13
2022-11-05T11:46:32.429Z,97743.56
2022-11-05T11:49:02.601Z,97734.22
2022-11-05T11:51:49.761Z,97732.06
2022-11-05T11:54:28.857Z,97729.94
2022-11-05T11:56:58.508Z,97733.00
2022-11-05T12:00:01.769Z,97741.25
2022-11-05T12:02:47.292Z,97743.16
2022-11-05T12:05:47.995Z,97739.88
2022-11-05T12:08:58.124Z,97742.50
2022-11-05T12:11:55.177Z,97750.47
2022-11-05T12:14:58.926Z,97750.50
2022-11-05T12:17:47.919Z,97750.28
2022-11-05T12:20:48.377Z,97752.53
2022-11-05T12:23:36.372Z,97764.28
2022-11-05T12:26:26.866Z,97762.78
2022-11-05T12:29:18.903Z,97764.75
2022-11-05T12:32:13.113Z,97749.47
2022-11-05T12:35:06.852Z,97755.50
2022-11-05T12:38:06.152Z,97734.22
2022-11-05T12:41:21.392Z,97761.66
2022-11-05T12:44:21.900Z,97760.97
2022-11-05T12:46:59.848Z,97760.50
2022-11-05T12:50:19.489Z,97761.31
2022-11-05T12:53:21.314Z,97767.00
2022-11-05T12:55:52.686Z,97776.56
2022-11-05T12:58:38.647Z,97770.06
2022-11-05T13:01:35.813Z,97774.28
2022-11-05T13:04:34.859Z,97780.78
2022-11-05T13:07:11.814Z,97784.19
2022-11-05T13:10:10.863Z,97787.41
2022-11-05T13:12:42.962Z,97795.03
2022-11-05T13:15:39.113Z,97795.25
2022-11-05T13:18:20.099Z,97798.22
2022-11-05T13:20:53.473Z,97797.66
2022-11-05T13:23:43.060Z,97792.84
2022-11-05T13:26:22.865Z,97794.81
2022-11-05T13:29:15.757Z,97801.63
2022-11-05T13:32:29.383Z,97801.28
2022-11-05T13:35:05.933Z,97807.66
2022-11-05T13:38:00.327Z,97821.34
2022-11-05T13:41:06.439Z,97819.97
2022-11-05T13:43:50.767Z,97824.25
2022-11-05T13:46:42.239Z,97826.53
2022-11-05T13:49:50.144Z,97827.34
2022-11-05T13:53:10.671Z,97831.78
2022-11-05T13:55:43.125Z,97829.59
2022-11-05T13:58:46.650Z,97835.06
2022-11-05T14:01:40.763Z,97832.31
2022-11-05T14:04:22.821Z,97840.59
2022-11-05T14:06:52.998Z,97833.56
2022-11-05T14:09:27.577Z,97836.84
2022-11-05T14:11:59.063Z,97850.28
2022-11-05T14:14:35.235Z,97856.56
2022-11-05T14:17:07.617Z,97853.16
2022-11-05T14:20:01.719Z,97867.25
2022-11-05T14:22:32.535Z,97867.25
2022-11-05T14:25:22.587Z,97868.28
2022-11-05T14:27:52.857Z,97872.94
2022-11-05T14:30:46.265Z,97882.38
2022-11-05T14:33:26.869Z,97885.22
2022-11-05T14:36:20.821Z,97885.44
2022-11-05T14:39:04.114Z,97885.53
2022-11-05T14:41:59.890Z,97889.97
2022-11-05T14:44:33.266Z,97892.00
2022-11-05T14:47:07.905Z,97878.66
2022-11-05T14:49:51.722Z,97889.84
2022-11-05T14:52:21.590Z,97895.88
2022-11-05T14:54:57.592Z,97903.47
2022-11-05T14:57:42.135Z,97906.69
2022-11-05T15:00:29.741Z,97914.19
2022-11-05T15:03:05.467Z,97919.44
2022-11-05T15:05:53.253Z,97911.63
2022-11-05T15:08:31.905Z,97921.09
2022-11-05T15:11:20.480Z,97922.09
2022-11-05T15:13:55.812Z,97921.69
2022-11-05T15:16:36.988Z,97920.66
2022-11-05T15:19:17.871Z,97929.53
2022-11-05T15:21:47.954Z,97920.97
2022-11-05T15:24:22.393Z,97929.53
2022-11-05T15:27:49.911Z,97930.56
2022-11-05T15:31:24.420Z,97939.41
2022-11-05T15:34:20.660Z,97936.25
2022-11-05T15:37:30.368Z,97946.13
2022-11-05T15:39:59.756Z,97946.75
2022-11-05T15:42:29.000Z,97948.38
2022-11-05T15:45:00.143Z,97951.56
2022-11-05T15:47:37.205Z,97953.59
2022-11-05T15:50:15.483Z,97956.22
2022-11-05T15:52:52.801Z,97966.47
2022-11-05T15:55:25.366Z,97968.50
2022-11-05T15:58:04.754Z,97972.72
2022-11-05T16:00:37.513Z,97973.16
2022-11-05T16:03:32.649Z,97972.59
2022-11-05T16:06:03.083Z,97980.66
2022-11-05T16:08:32.792Z,97988.13
2022-11-05T16:11:02.489Z,97982.53
2022-11-05T16:13:39.728Z,97992.00
2022-11-05T16:16:17.061Z,97990.25
2022-11-05T16:18:49.826Z,98003.72
2022-11-05T16:21:23.304Z,98005.75
2022-11-05T16:24:00.512Z,98008.25
2022-11-05T16:27:01.681Z,98020.75
2022-11-05T16:29:57.671Z,98035.28
2022-11-05T16:32:36.373Z,98034.53
2022-11-05T16:35:07.745Z,98039.59
2022-11-05T16:37:41.814Z,98037.41
2022-11-05T16:40:25.259Z,98048.69
2022-11-05T16:42:55.383Z,98049.91
2022-11-05T16:45:25.921Z,98044.72
2022-11-05T16:47:56.776Z,98049.56
2022-11-05T16:50:32.344Z,98057.25
2022-11-05T16:53:01.795Z,98058.03
2022-11-05T16:55:37.607Z,98069.75
2022-11-05T16:58:19.843Z,98074.59
2022-11-05T17:00:53.298Z,98071.38
2022-11-05T17:03:22.684Z,98077.03
2022-11-05T17:05:52.036Z,98075.25
2022-11-05T17:08:22.960Z,98075.59
2022-11-05T17:10:52.591Z,98080.63
2022-11-05T17:13:21.958Z,98082.44
2022-11-05T17:15:52.373Z,98092.28
2022-11-05T17:18:23.132Z,98089.06
2022-11-05T17:20:58.258Z,98099.72
2022-11-05T17:23:30.336Z,98082.69
2022-11-05T17:26:13.802Z,98087.56
2022-11-05T17:28:43.338Z,98092.41
2022-11-05T17:31:41.101Z,98082.41
2022-11-05T17:34:11.945Z,98086.84
2022-11-05T17:36:42.181Z,98084.63
2022-11-05T17:39:11.701Z,98095.25
2022-11-05T17:41:41.419Z,98076.19
2022-11-05T17:47:20.905Z,98101.72
2022-11-05T17:49:50.415Z,98091.28
2022-11-05T17:52:22.203Z,98103.72
2022-11-05T17:54:52.644Z,98121.38
2022-11-05T17:57:22.970Z,98108.53
2022-11-05T17:59:52.573Z,98104.09
2022-11-05T18:02:23.527Z,98100.69
2022-11-05T18:04:53.003Z,98108.28
2022-11-05T18:07:22.361Z,98106.28
2022-11-05T18:09:52.542Z,98119.31
2022-11-05T18:12:22.000Z,98124.53
2022-11-05T18:14:51.441Z,98116.69
2022-11-05T18:17:20.742Z,98102.47
2022-11-05T18:19:50.434Z,98102.28
2022-11-05T18:22:20.141Z,98104.47
2022-11-05T18:24:50.003Z,98116.94
2022-11-05T18:27:19.713Z,98128.34
2022-11-05T18:29:49.299Z,98118.72
2022-11-05T18:32:18.840Z,98126.16
2022-11-05T18:34:53.091Z,98132.19
2022-11-05T18:37:26.263Z,98137.19
2022-11-05T18:39:55.930Z,98139.44
2022-11-05T18:42:25.593Z,98142.88
2022-11-05T18:44:55.071Z,98143.88
2022-11-05T18:47:24.453Z,98123.41
2022-11-05T18:49:54.051Z,98150.28
2022-11-05T18:52:23.498Z,98143.44
2022-11-05T18:54:53.009Z,98131.59
2022-11-05T18:57:22.427Z,98138.81
2022-11-05T18:59:51.803Z,98146.66
2022-11-05T19:02:21.332Z,98142.25
2022-11-05T19:05:14.433Z,98145.25
2022-11-05T19:07:40.520Z,98151.09
2022-11-05T19:10:09.947Z,98153.31
2022-11-05T19:12:40.582Z,98145.31
2022-11-05T19:15:10.297Z,98156.34
2022-11-05T19:17:39.625Z,98168.78
2022-11-05T19:20:09.595Z,98170.81
2022-11-05T19:22:39.182Z,98158.34
2022-11-05T19:25:08.807Z,98161.19
2022-11-05T19:27:38.868Z,98164.56
2022-11-05T19:30:09.091Z,98169.00
2022-11-05T19:32:38.410Z,98167.97
2022-11-05T19:35:08.235Z,98177.84
2022-11-05T19:37:37.545Z,98167.59
2022-11-05T19:40:08.086Z,98179.84
2022-11-05T19:42:37.401Z,98176.84
2022-11-05T19:45:30.225Z,98172.41
2022-11-05T19:47:56.862Z,98174.22
2022-11-05T19:50:26.793Z,98194.91
2022-11-05T19:52:56.161Z,98194.31
2022-11-05T19:55:25.888Z,98184.28
2022-11-05T19:57:55.207Z,98191.94
2022-11-05T20:00:24.546Z,98191.91
2022-11-05T20:02:53.994Z,98194.69
2022-11-05T20:05:23.485Z,98193.72
2022-11-05T20:07:53.409Z,98191.69
2022-11-05T20:10:24.022Z,98189.31
2022-11-05T20:12:53.377Z,98209.59
2022-11-05T20:15:22.766Z,98204.97
2022-11-05T20:17:53.306Z,98208.81
2022-11-05T20:20:23.034Z,98206.19
2022-11-05T20:22:52.988Z,98201.78
2022-11-05T20:25:22.323Z,98214.66
2022-11-05T20:27:51.653Z,98215.81
2022-11-05T20:30:21.066Z,98210.22
2022-11-05T20:32:59.517Z,98222.25
2022-11-05T20:35:30.879Z,98226.25
2022-11-05T20:38:00.224Z,98227.06
2022-11-05T20:40:29.530Z,98229.88
2022-11-05T20:42:59.120Z,98237.50
2022-11-05T20:45:28.492Z,98229.50
2022-11-05T20:47:57.821Z,98235.53
2022-11-05T20:50:27.149Z,98231.69
2022-11-05T20:52:56.486Z,98235.91
2022-11-05T20:55:25.874Z,98240.75
2022-11-05T20:57:55.154Z,98249.78
2022-11-05T21:00:24.524Z,98240.97
2022-11-05T21:02:53.977Z,98246.00
2022-11-05T21:05:23.427Z,98253.63
2022-11-05T21:07:52.703Z,98248.19
2022-11-05T21:10:22.100Z,98256.00
2022-11-05T21:12:51.502Z,98254.00
2022-11-05T21:15:23.203Z,98257.03
2022-11-05T21:17:52.508Z,98258.84
2022-11-05T21:20:22.037Z,98264.66
2022-11-05T21:22:51.621Z,98263.47
2022-11-05T21:25:21.091Z,98263.66
2022-11-05T21:27:50.371Z,98255.63
2022-11-05T21:30:19.797Z,98263.25
2022-11-05T21:32:49.175Z,98255.44
2022-11-05T21:35:18.574Z,98264.66
2022-11-05T21:37:47.873Z,98269.47
2022-11-05T21:40:17.455Z,98265.88
2022-11-05T21:42:46.765Z,98270.91
2022-11-05T21:45:16.763Z,98266.06
2022-11-05T21:47:46.211Z,98269.09
2022-11-05T21:50:20.809Z,98269.09
2022-11-05T21:53:23.197Z,98264.69
2022-11-05T21:56:10.881Z,98277.34
2022-11-05T21:58:58.766Z,98276.94
2022-11-05T22:01:28.450Z,98269.50
2022-11-05T22:04:02.839Z,98272.13
2022-11-05T22:06:33.759Z,98266.28
2022-11-05T22:09:03.443Z,98263.47
2022-11-05T22:11:39.082Z,98271.69
2022-11-05T22:14:08.326Z,98264.47
2022-11-05T22:16:37.603Z,98266.88
2022-11-05T22:19:06.956Z,98268.50
2022-11-05T22:21:36.275Z,98252.22
2022-11-05T22:24:07.050Z,98270.50
2022-11-05T22:26:38.359Z,98270.09
2022-11-05T22:29:08.719Z,98269.69
2022-11-05T22:31:38.158Z,98275.53
2022-11-05T22:34:08.177Z,98270.09
2022-11-05T22:36:38.153Z,98271.09
2022-11-05T22:39:07.785Z,98279.31
2022-11-05T22:41:37.200Z,98269.69
2022-11-05T22:44:06.780Z,98272.50
2022-11-05T22:46:37.289Z,98275.09
2022-11-05T22:49:07.454Z,98272.50
2022-11-05T22:51:39.370Z,98273.09
2022-11-05T22:54:09.538Z,98262.84
2022-11-05T22:56:41.866Z,98265.28
2022-11-05T22:59:15.495Z,98279.13
2022-11-05T23:01:46.443Z,98266.88
2022-11-05T23:04:16.655Z,98263.28
2022-11-05T23:07:04.374Z,98279.53
2022-11-05T23:09:54.124Z,98282.53
2022-11-05T23:12:29.487Z,98284.16
2022-11-05T23:15:03.666Z,98283.56
2022-11-05T23:17:52.135Z,98280.31
2022-11-05T23:20:42.166Z,98268.28
2022-11-05T23:23:31.895Z,98281.13
2022-11-05T23:26:21.941Z,98280.94
2022-11-05T23:28:51.325Z,98268.88
2022-11-05T23:31:39.051Z,98281.13
2022-11-05T23:34:08.348Z,98280.34
2022-11-05T23:36:55.861Z,98283.97
2022-11-05T23:39:25.206Z,98290.63
2022-11-05T23:42:13.392Z,98285.97
2022-11-05T23:45:02.222Z,98286.19
2022-11-05T23:47:50.873Z,98280.53
2022-11-05T23:50:20.466Z,98276.53
2022-11-05T23:52:51.909Z,98276.53
2022-11-05T23:55:23.073Z,98279.97
2022-11-05T23:57:53.060Z,98288.00
